sensor_id;sensor_type;location;lat;lon;timestamp;temperature;humidity
652;DHT22;310;48.490;9.200;2023-07-09T00:01:55;26.60;28.20
652;DHT22;310;48.490;9.200;2023-07-09T00:04:21;26.70;28.60
652;DHT22;310;48.490;9.200;2023-07-09T00:06:46;26.70;28.10
652;DHT22;310;48.490;9.200;2023-07-09T00:09:17;26.60;28.70
652;DHT22;310;48.490;9.200;2023-07-09T00:11:44;26.50;29.60
652;DHT22;310;48.490;9.200;2023-07-09T00:14:11;26.40;29.10
652;DHT22;310;48.490;9.200;2023-07-09T00:16:38;26.20;29.50
652;DHT22;310;48.490;9.200;2023-07-09T00:19:05;26.30;31.00
652;DHT22;310;48.490;9.200;2023-07-09T00:21:31;26.40;29.30
652;DHT22;310;48.490;9.200;2023-07-09T00:24:00;26.30;29.70
652;DHT22;310;48.490;9.200;2023-07-09T00:26:33;26.40;29.70
652;DHT22;310;48.490;9.200;2023-07-09T00:28:59;26.30;29.90
652;DHT22;310;48.490;9.200;2023-07-09T00:31:26;26.50;28.70
652;DHT22;310;48.490;9.200;2023-07-09T00:33:51;26.30;29.70
652;DHT22;310;48.490;9.200;2023-07-09T00:36:26;26.30;29.80
652;DHT22;310;48.490;9.200;2023-07-09T00:38:52;26.10;30.10
652;DHT22;310;48.490;9.200;2023-07-09T00:41:20;26.00;30.10
652;DHT22;310;48.490;9.200;2023-07-09T00:43:47;26.00;30.40
652;DHT22;310;48.490;9.200;2023-07-09T00:48:47;26.00;30.60
652;DHT22;310;48.490;9.200;2023-07-09T00:51:17;25.80;30.70
652;DHT22;310;48.490;9.200;2023-07-09T00:53:46;25.90;30.20
652;DHT22;310;48.490;9.200;2023-07-09T00:56:16;25.80;30.60
652;DHT22;310;48.490;9.200;2023-07-09T00:58:45;25.70;31.40
652;DHT22;310;48.490;9.200;2023-07-09T01:01:16;25.60;32.40
652;DHT22;310;48.490;9.200;2023-07-09T01:03:53;25.60;31.70
652;DHT22;310;48.490;9.200;2023-07-09T01:06:30;25.70;32.30
652;DHT22;310;48.490;9.200;2023-07-09T01:08:58;25.60;31.90
652;DHT22;310;48.490;9.200;2023-07-09T01:11:26;25.70;31.10
652;DHT22;310;48.490;9.200;2023-07-09T01:13:54;25.80;30.80
652;DHT22;310;48.490;9.200;2023-07-09T01:16:23;25.80;31.20
652;DHT22;310;48.490;9.200;2023-07-09T01:18:52;25.60;31.70
652;DHT22;310;48.490;9.200;2023-07-09T01:21:19;25.70;31.20
652;DHT22;310;48.490;9.200;2023-07-09T01:23:46;25.60;31.20
652;DHT22;310;48.490;9.200;2023-07-09T01:26:15;25.60;31.80
652;DHT22;310;48.490;9.200;2023-07-09T01:28:41;25.50;31.90
652;DHT22;310;48.490;9.200;2023-07-09T01:31:11;25.60;32.40
652;DHT22;310;48.490;9.200;2023-07-09T01:33:37;25.40;32.60
652;DHT22;310;48.490;9.200;2023-07-09T01:36:06;25.40;33.30
652;DHT22;310;48.490;9.200;2023-07-09T01:38:32;25.40;33.20
652;DHT22;310;48.490;9.200;2023-07-09T01:40:59;25.40;32.60
652;DHT22;310;48.490;9.200;2023-07-09T01:43:26;25.20;32.70
652;DHT22;310;48.490;9.200;2023-07-09T01:45:52;25.10;33.20
652;DHT22;310;48.490;9.200;2023-07-09T01:48:18;25.10;33.60
652;DHT22;310;48.490;9.200;2023-07-09T01:50:46;25.10;34.50
652;DHT22;310;48.490;9.200;2023-07-09T01:53:13;25.00;33.80
652;DHT22;310;48.490;9.200;2023-07-09T01:55:40;24.90;33.90
652;DHT22;310;48.490;9.200;2023-07-09T01:58:05;24.90;34.10
652;DHT22;310;48.490;9.200;2023-07-09T02:00:33;24.90;34.30
652;DHT22;310;48.490;9.200;2023-07-09T02:03:00;24.90;34.80
652;DHT22;310;48.490;9.200;2023-07-09T02:05:29;25.00;33.40
652;DHT22;310;48.490;9.200;2023-07-09T02:07:55;25.10;33.40
652;DHT22;310;48.490;9.200;2023-07-09T02:10:21;25.00;33.30
652;DHT22;310;48.490;9.200;2023-07-09T02:12:47;25.10;32.90
652;DHT22;310;48.490;9.200;2023-07-09T02:15:13;25.00;33.60
652;DHT22;310;48.490;9.200;2023-07-09T02:17:39;25.00;33.10
652;DHT22;310;48.490;9.200;2023-07-09T02:20:05;25.00;33.80
652;DHT22;310;48.490;9.200;2023-07-09T02:22:33;24.90;33.80
652;DHT22;310;48.490;9.200;2023-07-09T02:24:58;24.80;33.60
652;DHT22;310;48.490;9.200;2023-07-09T02:27:24;24.80;34.20
652;DHT22;310;48.490;9.200;2023-07-09T02:29:49;25.00;33.20
652;DHT22;310;48.490;9.200;2023-07-09T02:32:20;24.90;33.20
652;DHT22;310;48.490;9.200;2023-07-09T02:34:47;25.10;32.20
652;DHT22;310;48.490;9.200;2023-07-09T02:37:19;25.10;33.70
652;DHT22;310;48.490;9.200;2023-07-09T02:39:45;24.90;33.70
652;DHT22;310;48.490;9.200;2023-07-09T02:42:13;24.70;35.30
652;DHT22;310;48.490;9.200;2023-07-09T02:44:40;24.70;34.10
652;DHT22;310;48.490;9.200;2023-07-09T02:47:06;24.70;34.50
652;DHT22;310;48.490;9.200;2023-07-09T02:49:32;24.50;34.10
652;DHT22;310;48.490;9.200;2023-07-09T02:51:58;24.40;34.90
652;DHT22;310;48.490;9.200;2023-07-09T02:54:23;24.40;34.80
652;DHT22;310;48.490;9.200;2023-07-09T02:56:49;24.40;35.40
652;DHT22;310;48.490;9.200;2023-07-09T02:59:15;24.30;35.60
652;DHT22;310;48.490;9.200;2023-07-09T03:01:40;24.30;35.20
652;DHT22;310;48.490;9.200;2023-07-09T03:04:06;24.10;35.30
652;DHT22;310;48.490;9.200;2023-07-09T03:06:32;24.00;35.70
652;DHT22;310;48.490;9.200;2023-07-09T03:08:59;24.00;35.60
652;DHT22;310;48.490;9.200;2023-07-09T03:11:27;24.00;35.10
652;DHT22;310;48.490;9.200;2023-07-09T03:13:52;24.00;34.90
652;DHT22;310;48.490;9.200;2023-07-09T03:16:18;24.00;35.20
652;DHT22;310;48.490;9.200;2023-07-09T03:18:45;24.10;34.60
652;DHT22;310;48.490;9.200;2023-07-09T03:21:11;24.40;33.70
652;DHT22;310;48.490;9.200;2023-07-09T03:23:36;24.50;33.70
652;DHT22;310;48.490;9.200;2023-07-09T03:26:02;24.30;34.80
652;DHT22;310;48.490;9.200;2023-07-09T03:28:30;24.20;35.80
652;DHT22;310;48.490;9.200;2023-07-09T03:30:56;24.10;35.30
652;DHT22;310;48.490;9.200;2023-07-09T03:33:22;24.10;35.60
652;DHT22;310;48.490;9.200;2023-07-09T03:35:49;24.10;34.80
652;DHT22;310;48.490;9.200;2023-07-09T03:38:15;24.10;35.90
652;DHT22;310;48.490;9.200;2023-07-09T03:40:40;24.10;35.20
652;DHT22;310;48.490;9.200;2023-07-09T03:43:06;24.00;35.40
652;DHT22;310;48.490;9.200;2023-07-09T03:45:35;24.00;35.30
652;DHT22;310;48.490;9.200;2023-07-09T03:48:01;23.90;35.80
652;DHT22;310;48.490;9.200;2023-07-09T03:50:27;24.00;35.70
652;DHT22;310;48.490;9.200;2023-07-09T03:52:53;23.90;35.90
652;DHT22;310;48.490;9.200;2023-07-09T03:55:18;23.80;36.00
652;DHT22;310;48.490;9.200;2023-07-09T03:57:44;23.80;36.80
652;DHT22;310;48.490;9.200;2023-07-09T04:00:10;23.90;36.90
652;DHT22;310;48.490;9.200;2023-07-09T04:02:37;23.80;36.80
652;DHT22;310;48.490;9.200;2023-07-09T04:05:03;23.90;37.30
652;DHT22;310;48.490;9.200;2023-07-09T04:07:29;24.00;36.10
652;DHT22;310;48.490;9.200;2023-07-09T04:09:54;23.90;35.90
652;DHT22;310;48.490;9.200;2023-07-09T04:12:20;23.90;36.00
652;DHT22;310;48.490;9.200;2023-07-09T04:14:45;23.90;36.10
652;DHT22;310;48.490;9.200;2023-07-09T04:17:11;24.00;36.20
652;DHT22;310;48.490;9.200;2023-07-09T04:19:37;24.10;36.10
652;DHT22;310;48.490;9.200;2023-07-09T04:22:02;24.10;35.80
652;DHT22;310;48.490;9.200;2023-07-09T04:24:29;23.80;35.40
652;DHT22;310;48.490;9.200;2023-07-09T04:26:55;23.80;36.10
652;DHT22;310;48.490;9.200;2023-07-09T04:29:22;23.90;36.30
652;DHT22;310;48.490;9.200;2023-07-09T04:31:48;23.70;35.60
652;DHT22;310;48.490;9.200;2023-07-09T04:34:14;23.50;36.50
652;DHT22;310;48.490;9.200;2023-07-09T04:36:40;23.80;36.90
652;DHT22;310;48.490;9.200;2023-07-09T04:39:06;24.00;36.30
652;DHT22;310;48.490;9.200;2023-07-09T04:41:33;24.20;36.80
652;DHT22;310;48.490;9.200;2023-07-09T04:43:58;24.40;35.60
652;DHT22;310;48.490;9.200;2023-07-09T04:46:24;24.50;35.50
652;DHT22;310;48.490;9.200;2023-07-09T04:48:50;24.40;34.90
652;DHT22;310;48.490;9.200;2023-07-09T04:51:15;24.50;35.30
652;DHT22;310;48.490;9.200;2023-07-09T04:53:41;24.60;35.20
652;DHT22;310;48.490;9.200;2023-07-09T04:56:07;24.60;35.80
652;DHT22;310;48.490;9.200;2023-07-09T04:58:34;24.60;36.80
652;DHT22;310;48.490;9.200;2023-07-09T05:01:00;24.70;35.60
652;DHT22;310;48.490;9.200;2023-07-09T05:03:26;24.70;36.50
652;DHT22;310;48.490;9.200;2023-07-09T05:05:52;24.50;35.00
652;DHT22;310;48.490;9.200;2023-07-09T05:08:18;24.30;34.00
652;DHT22;310;48.490;9.200;2023-07-09T05:10:46;23.40;36.30
652;DHT22;310;48.490;9.200;2023-07-09T05:13:12;23.30;36.90
652;DHT22;310;48.490;9.200;2023-07-09T05:15:44;23.20;37.40
652;DHT22;310;48.490;9.200;2023-07-09T05:18:13;23.00;37.60
652;DHT22;310;48.490;9.200;2023-07-09T05:20:40;22.40;39.50
652;DHT22;310;48.490;9.200;2023-07-09T05:23:06;22.60;38.50
652;DHT22;310;48.490;9.200;2023-07-09T05:25:32;22.90;38.60
652;DHT22;310;48.490;9.200;2023-07-09T05:27:57;23.50;36.90
652;DHT22;310;48.490;9.200;2023-07-09T05:30:23;24.10;36.70
652;DHT22;310;48.490;9.200;2023-07-09T05:32:49;24.60;35.40
652;DHT22;310;48.490;9.200;2023-07-09T05:35:14;24.40;33.80
652;DHT22;310;48.490;9.200;2023-07-09T05:37:40;24.10;35.00
652;DHT22;310;48.490;9.200;2023-07-09T05:40:07;23.70;35.70
652;DHT22;310;48.490;9.200;2023-07-09T05:42:33;23.30;36.60
652;DHT22;310;48.490;9.200;2023-07-09T05:44:59;23.30;36.50
652;DHT22;310;48.490;9.200;2023-07-09T05:47:25;23.60;36.30
652;DHT22;310;48.490;9.200;2023-07-09T05:49:51;23.80;35.60
652;DHT22;310;48.490;9.200;2023-07-09T05:52:19;24.00;35.10
652;DHT22;310;48.490;9.200;2023-07-09T05:54:45;24.10;35.10
652;DHT22;310;48.490;9.200;2023-07-09T05:57:11;24.40;34.30
652;DHT22;310;48.490;9.200;2023-07-09T05:59:36;24.70;33.10
652;DHT22;310;48.490;9.200;2023-07-09T06:02:03;24.70;33.60
652;DHT22;310;48.490;9.200;2023-07-09T06:04:29;24.60;33.80
652;DHT22;310;48.490;9.200;2023-07-09T06:06:56;25.20;32.20
652;DHT22;310;48.490;9.200;2023-07-09T06:09:22;25.60;31.70
652;DHT22;310;48.490;9.200;2023-07-09T06:11:48;25.60;30.80
652;DHT22;310;48.490;9.200;2023-07-09T06:14:13;24.70;33.00
652;DHT22;310;48.490;9.200;2023-07-09T06:16:39;24.70;33.60
652;DHT22;310;48.490;9.200;2023-07-09T06:19:04;24.70;33.80
652;DHT22;310;48.490;9.200;2023-07-09T06:21:30;24.30;34.30
652;DHT22;310;48.490;9.200;2023-07-09T06:23:55;24.40;34.90
652;DHT22;310;48.490;9.200;2023-07-09T06:26:21;25.10;33.40
652;DHT22;310;48.490;9.200;2023-07-09T06:28:46;25.80;32.70
652;DHT22;310;48.490;9.200;2023-07-09T06:31:12;25.60;31.90
652;DHT22;310;48.490;9.200;2023-07-09T06:33:37;25.80;31.90
652;DHT22;310;48.490;9.200;2023-07-09T06:36:03;25.40;32.00
652;DHT22;310;48.490;9.200;2023-07-09T06:38:30;25.20;33.70
652;DHT22;310;48.490;9.200;2023-07-09T06:40:56;25.80;32.60
652;DHT22;310;48.490;9.200;2023-07-09T06:43:22;25.60;31.90
652;DHT22;310;48.490;9.200;2023-07-09T06:48:16;25.60;32.00
652;DHT22;310;48.490;9.200;2023-07-09T06:50:41;26.00;31.80
652;DHT22;310;48.490;9.200;2023-07-09T06:53:07;26.10;31.00
652;DHT22;310;48.490;9.200;2023-07-09T06:55:33;25.90;31.20
652;DHT22;310;48.490;9.200;2023-07-09T06:57:59;26.00;30.90
652;DHT22;310;48.490;9.200;2023-07-09T07:00:24;26.50;30.40
652;DHT22;310;48.490;9.200;2023-07-09T07:02:50;26.40;30.30
652;DHT22;310;48.490;9.200;2023-07-09T07:05:16;26.40;30.30
652;DHT22;310;48.490;9.200;2023-07-09T07:07:43;26.70;30.10
652;DHT22;310;48.490;9.200;2023-07-09T07:10:09;27.10;30.50
652;DHT22;310;48.490;9.200;2023-07-09T07:12:43;27.40;29.30
652;DHT22;310;48.490;9.200;2023-07-09T07:15:10;27.60;28.20
652;DHT22;310;48.490;9.200;2023-07-09T07:17:36;27.80;28.70
652;DHT22;310;48.490;9.200;2023-07-09T07:20:02;27.50;28.20
652;DHT22;310;48.490;9.200;2023-07-09T07:22:28;27.30;29.00
652;DHT22;310;48.490;9.200;2023-07-09T07:24:53;27.30;29.30
652;DHT22;310;48.490;9.200;2023-07-09T07:27:19;27.60;28.90
652;DHT22;310;48.490;9.200;2023-07-09T07:29:44;27.60;29.10
652;DHT22;310;48.490;9.200;2023-07-09T07:32:11;27.50;28.70
652;DHT22;310;48.490;9.200;2023-07-09T07:34:36;27.50;28.10
652;DHT22;310;48.490;9.200;2023-07-09T07:37:02;28.00;27.80
652;DHT22;310;48.490;9.200;2023-07-09T07:39:28;28.20;27.90
652;DHT22;310;48.490;9.200;2023-07-09T07:41:54;28.40;27.60
652;DHT22;310;48.490;9.200;2023-07-09T07:44:21;28.60;27.30
652;DHT22;310;48.490;9.200;2023-07-09T07:46:47;28.80;26.40
652;DHT22;310;48.490;9.200;2023-07-09T07:49:13;28.80;26.10
652;DHT22;310;48.490;9.200;2023-07-09T07:51:38;28.90;27.00
652;DHT22;310;48.490;9.200;2023-07-09T07:54:04;28.70;26.30
652;DHT22;310;48.490;9.200;2023-07-09T07:56:30;28.50;26.10
652;DHT22;310;48.490;9.200;2023-07-09T07:58:55;28.40;26.60
652;DHT22;310;48.490;9.200;2023-07-09T08:01:21;28.40;27.00
652;DHT22;310;48.490;9.200;2023-07-09T08:03:47;28.50;25.60
652;DHT22;310;48.490;9.200;2023-07-09T08:06:12;28.80;26.00
652;DHT22;310;48.490;9.200;2023-07-09T08:08:38;29.30;25.10
652;DHT22;310;48.490;9.200;2023-07-09T08:11:06;29.50;25.00
652;DHT22;310;48.490;9.200;2023-07-09T08:13:36;29.60;24.40
652;DHT22;310;48.490;9.200;2023-07-09T08:16:03;29.40;24.20
652;DHT22;310;48.490;9.200;2023-07-09T08:18:29;29.10;24.20
652;DHT22;310;48.490;9.200;2023-07-09T08:20:54;29.60;22.90
652;DHT22;310;48.490;9.200;2023-07-09T08:23:20;29.20;23.90
652;DHT22;310;48.490;9.200;2023-07-09T08:25:53;29.30;23.30
652;DHT22;310;48.490;9.200;2023-07-09T08:28:18;29.60;22.80
652;DHT22;310;48.490;9.200;2023-07-09T08:30:44;30.30;23.20
652;DHT22;310;48.490;9.200;2023-07-09T08:33:10;29.90;22.50
652;DHT22;310;48.490;9.200;2023-07-09T08:35:36;29.80;23.60
652;DHT22;310;48.490;9.200;2023-07-09T08:38:01;29.90;23.20
652;DHT22;310;48.490;9.200;2023-07-09T08:40:27;30.00;23.00
652;DHT22;310;48.490;9.200;2023-07-09T08:42:57;30.20;22.70
652;DHT22;310;48.490;9.200;2023-07-09T08:45:44;30.50;22.90
652;DHT22;310;48.490;9.200;2023-07-09T08:48:19;30.80;23.40
652;DHT22;310;48.490;9.200;2023-07-09T08:50:52;31.00;21.70
652;DHT22;310;48.490;9.200;2023-07-09T08:53:34;30.40;22.30
652;DHT22;310;48.490;9.200;2023-07-09T08:56:01;30.30;22.10
652;DHT22;310;48.490;9.200;2023-07-09T08:58:31;30.50;22.80
652;DHT22;310;48.490;9.200;2023-07-09T09:01:03;30.60;22.00
652;DHT22;310;48.490;9.200;2023-07-09T09:06:09;30.60;21.80
652;DHT22;310;48.490;9.200;2023-07-09T09:11:47;30.90;20.50
652;DHT22;310;48.490;9.200;2023-07-09T09:16:54;31.50;19.40
652;DHT22;310;48.490;9.200;2023-07-09T09:21:58;31.50;19.40
652;DHT22;310;48.490;9.200;2023-07-09T09:24:32;31.00;19.80
652;DHT22;310;48.490;9.200;2023-07-09T09:27:00;31.70;20.20
652;DHT22;310;48.490;9.200;2023-07-09T09:29:26;31.70;19.20
652;DHT22;310;48.490;9.200;2023-07-09T09:31:56;31.50;19.40
652;DHT22;310;48.490;9.200;2023-07-09T09:34:29;32.20;19.80
652;DHT22;310;48.490;9.200;2023-07-09T09:36:57;31.70;18.40
652;DHT22;310;48.490;9.200;2023-07-09T09:39:24;31.60;18.50
652;DHT22;310;48.490;9.200;2023-07-09T09:41:53;31.70;18.40
652;DHT22;310;48.490;9.200;2023-07-09T09:44:25;32.30;19.80
652;DHT22;310;48.490;9.200;2023-07-09T09:46:52;32.70;17.40
652;DHT22;310;48.490;9.200;2023-07-09T09:49:18;32.00;18.10
652;DHT22;310;48.490;9.200;2023-07-09T09:51:45;32.30;18.50
652;DHT22;310;48.490;9.200;2023-07-09T09:54:26;32.30;18.00
652;DHT22;310;48.490;9.200;2023-07-09T09:56:53;32.30;18.00
652;DHT22;310;48.490;9.200;2023-07-09T09:59:31;32.30;18.30
652;DHT22;310;48.490;9.200;2023-07-09T10:02:11;32.30;17.70
652;DHT22;310;48.490;9.200;2023-07-09T10:04:39;32.40;17.60
652;DHT22;310;48.490;9.200;2023-07-09T10:07:07;33.10;19.20
652;DHT22;310;48.490;9.200;2023-07-09T10:09:52;33.80;17.20
652;DHT22;310;48.490;9.200;2023-07-09T10:12:39;34.20;16.60
652;DHT22;310;48.490;9.200;2023-07-09T10:18:07;34.70;15.70
652;DHT22;310;48.490;9.200;2023-07-09T10:20:42;35.00;16.00
652;DHT22;310;48.490;9.200;2023-07-09T10:23:22;34.90;14.70
652;DHT22;310;48.490;9.200;2023-07-09T10:25:54;35.10;14.30
652;DHT22;310;48.490;9.200;2023-07-09T10:39:45;35.00;13.80
652;DHT22;310;48.490;9.200;2023-07-09T10:42:32;33.70;14.80
652;DHT22;310;48.490;9.200;2023-07-09T10:45:09;33.50;15.70
652;DHT22;310;48.490;9.200;2023-07-09T10:47:41;34.10;14.40
652;DHT22;310;48.490;9.200;2023-07-09T10:50:14;34.20;15.40
652;DHT22;310;48.490;9.200;2023-07-09T10:52:45;34.80;16.00
652;DHT22;310;48.490;9.200;2023-07-09T10:55:15;35.50;14.40
652;DHT22;310;48.490;9.200;2023-07-09T10:57:52;35.10;13.60
652;DHT22;310;48.490;9.200;2023-07-09T11:00:20;35.40;14.20
652;DHT22;310;48.490;9.200;2023-07-09T11:02:55;35.90;12.80
652;DHT22;310;48.490;9.200;2023-07-09T11:05:22;36.30;12.20
652;DHT22;310;48.490;9.200;2023-07-09T11:08:11;36.30;12.30
652;DHT22;310;48.490;9.200;2023-07-09T11:10:46;36.30;11.00
652;DHT22;310;48.490;9.200;2023-07-09T11:13:18;36.40;12.00
652;DHT22;310;48.490;9.200;2023-07-09T11:15:49;36.90;10.70
652;DHT22;310;48.490;9.200;2023-07-09T11:18:29;36.60;11.00
652;DHT22;310;48.490;9.200;2023-07-09T11:21:20;36.60;9.30
652;DHT22;310;48.490;9.200;2023-07-09T11:23:59;36.80;8.70
652;DHT22;310;48.490;9.200;2023-07-09T11:26:28;37.30;8.40
652;DHT22;310;48.490;9.200;2023-07-09T11:29:15;37.40;9.00
652;DHT22;310;48.490;9.200;2023-07-09T11:31:43;37.60;9.20
652;DHT22;310;48.490;9.200;2023-07-09T11:36:58;38.30;7.60
652;DHT22;310;48.490;9.200;2023-07-09T11:42:01;39.60;6.10
652;DHT22;310;48.490;9.200;2023-07-09T11:44:30;40.10;5.60
652;DHT22;310;48.490;9.200;2023-07-09T11:50:01;41.20;6.80
652;DHT22;310;48.490;9.200;2023-07-09T11:52:45;42.10;4.00
652;DHT22;310;48.490;9.200;2023-07-09T11:57:48;41.20;4.40
652;DHT22;310;48.490;9.200;2023-07-09T12:00:15;42.30;3.60
652;DHT22;310;48.490;9.200;2023-07-09T12:02:40;42.40;3.00
652;DHT22;310;48.490;9.200;2023-07-09T12:05:06;42.80;4.60
652;DHT22;310;48.490;9.200;2023-07-09T12:07:32;42.90;4.30
652;DHT22;310;48.490;9.200;2023-07-09T12:10:03;43.10;2.90
652;DHT22;310;48.490;9.200;2023-07-09T12:12:34;42.40;3.40
652;DHT22;310;48.490;9.200;2023-07-09T12:15:05;42.80;3.70
652;DHT22;310;48.490;9.200;2023-07-09T12:17:31;42.60;3.90
652;DHT22;310;48.490;9.200;2023-07-09T12:19:59;43.00;2.50
652;DHT22;310;48.490;9.200;2023-07-09T12:22:24;43.70;3.00
652;DHT22;310;48.490;9.200;2023-07-09T12:24:50;43.90;1.40
652;DHT22;310;48.490;9.200;2023-07-09T12:27:23;44.20;1.90
652;DHT22;310;48.490;9.200;2023-07-09T12:29:54;43.70;2.60
652;DHT22;310;48.490;9.200;2023-07-09T12:32:20;44.20;1.50
652;DHT22;310;48.490;9.200;2023-07-09T12:34:52;43.60;1.20
652;DHT22;310;48.490;9.200;2023-07-09T12:37:19;43.70;2.50
652;DHT22;310;48.490;9.200;2023-07-09T12:39:47;44.20;1.80
652;DHT22;310;48.490;9.200;2023-07-09T12:42:23;43.50;1.00
652;DHT22;310;48.490;9.200;2023-07-09T12:44:50;41.70;3.10
652;DHT22;310;48.490;9.200;2023-07-09T12:47:18;42.10;3.30
652;DHT22;310;48.490;9.200;2023-07-09T12:49:45;43.00;1.00
652;DHT22;310;48.490;9.200;2023-07-09T12:52:20;44.00;1.00
652;DHT22;310;48.490;9.200;2023-07-09T12:54:56;44.30;2.50
652;DHT22;310;48.490;9.200;2023-07-09T12:57:22;44.10;1.00
652;DHT22;310;48.490;9.200;2023-07-09T12:59:48;44.40;1.60
652;DHT22;310;48.490;9.200;2023-07-09T13:02:22;43.90;1.50
652;DHT22;310;48.490;9.200;2023-07-09T13:04:49;42.80;1.90
652;DHT22;310;48.490;9.200;2023-07-09T13:10:03;42.50;1.00
652;DHT22;310;48.490;9.200;2023-07-09T13:12:31;42.10;1.00
652;DHT22;310;48.490;9.200;2023-07-09T13:14:57;41.90;1.90
652;DHT22;310;48.490;9.200;2023-07-09T13:17:23;41.80;1.00
652;DHT22;310;48.490;9.200;2023-07-09T13:19:53;42.00;1.00
652;DHT22;310;48.490;9.200;2023-07-09T13:22:21;40.70;1.00
652;DHT22;310;48.490;9.200;2023-07-09T13:24:47;40.20;1.60
652;DHT22;310;48.490;9.200;2023-07-09T13:27:13;40.30;2.00
652;DHT22;310;48.490;9.200;2023-07-09T13:29:39;39.50;3.90
652;DHT22;310;48.490;9.200;2023-07-09T13:32:10;39.90;4.60
652;DHT22;310;48.490;9.200;2023-07-09T13:34:36;39.80;3.60
652;DHT22;310;48.490;9.200;2023-07-09T13:37:02;39.40;1.80
652;DHT22;310;48.490;9.200;2023-07-09T13:39:28;39.30;3.20
652;DHT22;310;48.490;9.200;2023-07-09T13:41:53;39.20;3.10
652;DHT22;310;48.490;9.200;2023-07-09T13:44:28;38.70;3.20
652;DHT22;310;48.490;9.200;2023-07-09T13:46:55;38.90;3.10
652;DHT22;310;48.490;9.200;2023-07-09T13:49:22;38.80;2.20
652;DHT22;310;48.490;9.200;2023-07-09T13:51:50;38.40;4.00
652;DHT22;310;48.490;9.200;2023-07-09T13:54:22;39.10;2.60
652;DHT22;310;48.490;9.200;2023-07-09T13:56:49;39.50;3.00
652;DHT22;310;48.490;9.200;2023-07-09T13:59:21;39.50;2.60
652;DHT22;310;48.490;9.200;2023-07-09T14:01:49;39.30;3.30
652;DHT22;310;48.490;9.200;2023-07-09T14:04:17;39.50;3.20
652;DHT22;310;48.490;9.200;2023-07-09T14:06:43;39.50;2.30
652;DHT22;310;48.490;9.200;2023-07-09T14:09:10;39.60;2.20
652;DHT22;310;48.490;9.200;2023-07-09T14:11:42;39.80;2.30
652;DHT22;310;48.490;9.200;2023-07-09T14:14:37;39.80;1.60
652;DHT22;310;48.490;9.200;2023-07-09T14:17:03;40.10;2.20
652;DHT22;310;48.490;9.200;2023-07-09T14:19:29;40.10;3.50
652;DHT22;310;48.490;9.200;2023-07-09T14:21:54;40.20;2.70
652;DHT22;310;48.490;9.200;2023-07-09T14:24:24;40.40;2.20
652;DHT22;310;48.490;9.200;2023-07-09T14:26:51;39.40;2.50
652;DHT22;310;48.490;9.200;2023-07-09T14:29:17;39.50;3.70
652;DHT22;310;48.490;9.200;2023-07-09T14:31:44;39.60;3.40
652;DHT22;310;48.490;9.200;2023-07-09T14:36:42;40.00;3.10
652;DHT22;310;48.490;9.200;2023-07-09T14:39:09;39.80;4.90
652;DHT22;310;48.490;9.200;2023-07-09T14:41:35;39.90;3.10
652;DHT22;310;48.490;9.200;2023-07-09T14:44:01;39.80;3.50
652;DHT22;310;48.490;9.200;2023-07-09T14:46:28;39.70;3.30
652;DHT22;310;48.490;9.200;2023-07-09T14:48:53;39.40;2.60
652;DHT22;310;48.490;9.200;2023-07-09T14:51:19;39.60;4.90
652;DHT22;310;48.490;9.200;2023-07-09T14:53:45;39.70;2.60
652;DHT22;310;48.490;9.200;2023-07-09T14:56:13;39.30;2.00
652;DHT22;310;48.490;9.200;2023-07-09T14:58:39;38.90;3.20
652;DHT22;310;48.490;9.200;2023-07-09T15:01:09;39.10;3.50
652;DHT22;310;48.490;9.200;2023-07-09T15:03:35;39.50;4.40
652;DHT22;310;48.490;9.200;2023-07-09T15:06:01;39.60;3.40
652;DHT22;310;48.490;9.200;2023-07-09T15:08:28;39.50;3.10
652;DHT22;310;48.490;9.200;2023-07-09T15:10:54;39.20;4.60
652;DHT22;310;48.490;9.200;2023-07-09T15:15:51;38.60;4.10
652;DHT22;310;48.490;9.200;2023-07-09T15:18:17;38.40;5.40
652;DHT22;310;48.490;9.200;2023-07-09T15:21:02;38.00;3.70
652;DHT22;310;48.490;9.200;2023-07-09T15:23:29;38.00;6.50
652;DHT22;310;48.490;9.200;2023-07-09T15:25:55;38.30;5.80
652;DHT22;310;48.490;9.200;2023-07-09T15:28:21;38.60;4.20
652;DHT22;310;48.490;9.200;2023-07-09T15:30:47;38.80;4.80
652;DHT22;310;48.490;9.200;2023-07-09T15:33:18;39.00;4.20
652;DHT22;310;48.490;9.200;2023-07-09T15:35:45;39.30;3.30
652;DHT22;310;48.490;9.200;2023-07-09T15:40:48;39.50;4.50
652;DHT22;310;48.490;9.200;2023-07-09T15:43:14;39.30;4.00
652;DHT22;310;48.490;9.200;2023-07-09T15:45:43;39.50;5.60
652;DHT22;310;48.490;9.200;2023-07-09T15:48:34;39.10;3.90
652;DHT22;310;48.490;9.200;2023-07-09T15:51:02;39.10;4.70
652;DHT22;310;48.490;9.200;2023-07-09T15:53:28;38.40;4.20
652;DHT22;310;48.490;9.200;2023-07-09T15:55:59;38.70;4.10
652;DHT22;310;48.490;9.200;2023-07-09T15:58:27;38.80;4.80
652;DHT22;310;48.490;9.200;2023-07-09T16:00:54;39.00;3.70
652;DHT22;310;48.490;9.200;2023-07-09T16:03:20;39.10;3.90
652;DHT22;310;48.490;9.200;2023-07-09T16:05:46;39.30;4.60
652;DHT22;310;48.490;9.200;2023-07-09T16:08:12;39.20;7.00
652;DHT22;310;48.490;9.200;2023-07-09T16:10:37;39.10;7.20
652;DHT22;310;48.490;9.200;2023-07-09T16:13:03;39.00;3.60
652;DHT22;310;48.490;9.200;2023-07-09T16:15:30;38.90;3.20
652;DHT22;310;48.490;9.200;2023-07-09T16:17:56;38.70;4.20
652;DHT22;310;48.490;9.200;2023-07-09T16:20:25;38.40;4.70
652;DHT22;310;48.490;9.200;2023-07-09T16:22:54;38.30;5.10
652;DHT22;310;48.490;9.200;2023-07-09T16:27:48;37.90;5.40
652;DHT22;310;48.490;9.200;2023-07-09T16:30:21;37.50;6.80
652;DHT22;310;48.490;9.200;2023-07-09T16:32:48;37.40;5.60
652;DHT22;310;48.490;9.200;2023-07-09T16:35:16;37.30;7.80
652;DHT22;310;48.490;9.200;2023-07-09T16:37:42;37.20;7.50
652;DHT22;310;48.490;9.200;2023-07-09T16:40:17;37.00;6.00
652;DHT22;310;48.490;9.200;2023-07-09T16:42:44;36.80;6.80
652;DHT22;310;48.490;9.200;2023-07-09T16:45:12;36.70;7.40
652;DHT22;310;48.490;9.200;2023-07-09T16:47:38;36.80;6.70
652;DHT22;310;48.490;9.200;2023-07-09T16:50:04;36.80;7.90
652;DHT22;310;48.490;9.200;2023-07-09T16:52:30;36.60;9.00
652;DHT22;310;48.490;9.200;2023-07-09T16:54:56;36.60;8.60
652;DHT22;310;48.490;9.200;2023-07-09T16:57:26;36.50;8.70
652;DHT22;310;48.490;9.200;2023-07-09T16:59:54;36.50;8.30
652;DHT22;310;48.490;9.200;2023-07-09T17:04:53;36.40;9.80
652;DHT22;310;48.490;9.200;2023-07-09T17:07:18;36.40;9.80
652;DHT22;310;48.490;9.200;2023-07-09T17:09:44;36.30;8.70
652;DHT22;310;48.490;9.200;2023-07-09T17:12:11;36.30;8.90
652;DHT22;310;48.490;9.200;2023-07-09T17:14:40;36.30;8.80
652;DHT22;310;48.490;9.200;2023-07-09T17:17:13;36.00;8.70
652;DHT22;310;48.490;9.200;2023-07-09T17:19:40;36.10;8.70
652;DHT22;310;48.490;9.200;2023-07-09T17:22:32;36.30;9.00
652;DHT22;310;48.490;9.200;2023-07-09T17:25:00;36.50;10.20
652;DHT22;310;48.490;9.200;2023-07-09T17:27:26;36.60;9.10
652;DHT22;310;48.490;9.200;2023-07-09T17:29:51;36.60;9.10
652;DHT22;310;48.490;9.200;2023-07-09T17:32:17;36.30;9.00
652;DHT22;310;48.490;9.200;2023-07-09T17:34:43;36.10;9.80
652;DHT22;310;48.490;9.200;2023-07-09T17:37:11;36.10;10.80
652;DHT22;310;48.490;9.200;2023-07-09T17:39:38;36.10;10.70
652;DHT22;310;48.490;9.200;2023-07-09T17:42:05;36.20;10.30